createdAt,value
2019-03-16T00:00:33.886Z,2.60
2019-03-16T00:03:05.581Z,2.07
2019-03-16T00:05:37.214Z,1.53
2019-03-16T00:08:08.994Z,2.37
2019-03-16T00:10:40.662Z,2.57
2019-03-16T00:13:15.856Z,1.33
2019-03-16T00:15:45.650Z,1.10
2019-03-16T00:18:17.344Z,1.50
2019-03-16T00:20:48.930Z,1.13
2019-03-16T00:23:20.778Z,1.67
2019-03-16T00:25:52.510Z,1.60
2019-03-16T00:28:24.446Z,1.77
2019-03-16T00:30:56.108Z,1.80
2019-03-16T00:33:27.713Z,1.87
2019-03-16T00:35:59.287Z,1.87
2019-03-16T00:38:30.891Z,1.17
2019-03-16T00:41:02.469Z,1.27
2019-03-16T00:43:34.226Z,1.40
2019-03-16T00:46:05.770Z,1.03
2019-03-16T00:48:37.370Z,1.60
2019-03-16T00:51:08.962Z,1.17
2019-03-16T00:53:40.625Z,1.20
2019-03-16T00:56:12.255Z,1.97
2019-03-16T00:58:43.868Z,0.80
2019-03-16T01:01:15.516Z,1.30
2019-03-16T01:03:47.193Z,1.00
2019-03-16T01:06:18.777Z,1.03
2019-03-16T01:08:50.681Z,1.53
2019-03-16T01:11:22.509Z,1.37
2019-03-16T01:13:54.357Z,1.37
2019-03-16T01:16:26.004Z,1.40
2019-03-16T01:18:57.601Z,1.83
2019-03-16T01:21:29.193Z,1.17
2019-03-16T01:24:00.861Z,1.20
2019-03-16T01:26:32.443Z,1.10
2019-03-16T01:29:04.048Z,1.70
2019-03-16T01:31:35.632Z,1.53
2019-03-16T01:34:07.227Z,1.50
2019-03-16T01:36:38.803Z,1.40
2019-03-16T01:39:10.494Z,1.30
2019-03-16T01:41:42.091Z,2.37
2019-03-16T01:44:13.704Z,1.07
2019-03-16T01:46:45.286Z,1.83
2019-03-16T01:49:16.883Z,1.27
2019-03-16T01:51:49.545Z,1.50
2019-03-16T01:54:21.344Z,1.47
2019-03-16T01:56:52.922Z,1.80
2019-03-16T01:59:24.622Z,1.33
2019-03-16T02:01:56.208Z,1.53
2019-03-16T02:04:27.903Z,1.60
2019-03-16T02:06:59.553Z,1.67
2019-03-16T02:09:31.332Z,1.30
2019-03-16T02:12:02.921Z,2.03
2019-03-16T02:14:34.533Z,1.43
2019-03-16T02:17:06.287Z,1.93
2019-03-16T02:19:37.905Z,1.10
2019-03-16T02:22:09.487Z,1.10
2019-03-16T02:24:41.089Z,1.67
2019-03-16T02:27:12.740Z,2.03
2019-03-16T02:29:44.337Z,1.23
2019-03-16T02:32:15.928Z,0.97
2019-03-16T02:34:47.528Z,1.70
2019-03-16T02:37:19.114Z,1.30
2019-03-16T02:39:51.228Z,1.47
2019-03-16T02:42:22.819Z,1.77
2019-03-16T02:44:54.598Z,1.50
2019-03-16T02:47:26.274Z,1.10
2019-03-16T02:49:57.938Z,1.43
2019-03-16T02:52:29.513Z,1.27
2019-03-16T02:55:01.301Z,1.13
2019-03-16T02:57:33.124Z,1.20
2019-03-16T03:00:05.170Z,2.17
2019-03-16T03:02:36.922Z,1.23
2019-03-16T03:05:08.880Z,1.83
2019-03-16T03:07:40.514Z,0.67
2019-03-16T03:10:12.280Z,0.87
2019-03-16T03:12:43.943Z,1.23
2019-03-16T03:15:16.621Z,1.43
2019-03-16T03:17:48.205Z,1.77
2019-03-16T03:20:19.854Z,1.17
2019-03-16T03:22:51.593Z,1.50
2019-03-16T03:25:23.248Z,1.93
2019-03-16T03:27:54.848Z,1.30
2019-03-16T03:30:26.462Z,0.90
2019-03-16T03:32:58.066Z,1.37
2019-03-16T03:35:29.851Z,1.70
2019-03-16T03:38:01.509Z,1.60
2019-03-16T03:40:33.192Z,1.63
2019-03-16T03:43:04.841Z,1.50
2019-03-16T03:45:36.449Z,1.47
2019-03-16T03:48:08.107Z,1.47
2019-03-16T03:50:39.703Z,2.07
2019-03-16T03:53:11.357Z,2.30
2019-03-16T03:55:42.955Z,1.30
2019-03-16T03:58:14.526Z,1.73
2019-03-16T04:00:46.112Z,1.80
2019-03-16T04:03:17.792Z,1.70
2019-03-16T04:05:49.520Z,1.20
2019-03-16T04:08:21.346Z,1.60
2019-03-16T04:10:53.043Z,1.83
2019-03-16T04:13:24.732Z,1.90
2019-03-16T04:15:56.313Z,1.67
2019-03-16T04:18:28.002Z,2.00
2019-03-16T04:20:59.619Z,1.03
2019-03-16T04:23:32.285Z,1.80
2019-03-16T04:26:03.948Z,1.37
2019-03-16T04:28:35.547Z,1.60
2019-03-16T04:31:07.250Z,1.50
2019-03-16T04:33:39.015Z,1.13
2019-03-16T04:36:10.625Z,1.40
2019-03-16T04:38:42.308Z,1.70
2019-03-16T04:41:14.096Z,1.83
2019-03-16T04:43:45.805Z,1.50
2019-03-16T04:46:17.506Z,1.60
2019-03-16T04:48:49.197Z,1.67
2019-03-16T04:51:20.799Z,1.73
2019-03-16T04:53:52.524Z,1.50
2019-03-16T04:56:24.481Z,1.57
2019-03-16T04:58:56.070Z,1.63
2019-03-16T05:01:27.746Z,1.40
2019-03-16T05:03:59.516Z,1.37
2019-03-16T05:06:31.484Z,2.47
2019-03-16T05:09:03.421Z,2.10
2019-03-16T05:11:35.109Z,2.43
2019-03-16T05:14:06.690Z,1.57
2019-03-16T05:16:38.463Z,3.23
2019-03-16T05:19:10.165Z,1.50
2019-03-16T05:21:41.957Z,2.90
2019-03-16T05:24:13.667Z,2.37
2019-03-16T05:26:45.271Z,2.93
2019-03-16T05:29:16.863Z,2.70
2019-03-16T05:31:50.662Z,1.80
2019-03-16T05:34:21.896Z,17.43
2019-03-16T05:36:56.085Z,4.27
2019-03-16T05:39:27.112Z,2.93
2019-03-16T05:41:58.819Z,2.40
2019-03-16T05:44:30.502Z,3.73
2019-03-16T05:47:02.188Z,2.20
2019-03-16T05:49:33.771Z,1.60
2019-03-16T05:52:05.478Z,2.50
2019-03-16T05:54:37.069Z,2.50
2019-03-16T05:57:08.677Z,2.27
2019-03-16T05:59:40.267Z,3.10
2019-03-16T06:02:12.570Z,1.83
2019-03-16T06:04:44.259Z,2.13
2019-03-16T06:07:15.966Z,2.80
2019-03-16T06:09:47.667Z,2.03
2019-03-16T06:12:19.291Z,1.63
2019-03-16T06:14:50.875Z,1.77
2019-03-16T06:17:22.679Z,2.33
2019-03-16T06:19:54.442Z,1.90
2019-03-16T06:22:26.039Z,1.70
2019-03-16T06:24:57.646Z,1.33
2019-03-16T06:27:29.270Z,3.07
2019-03-16T06:30:00.874Z,2.30
2019-03-16T06:32:33.633Z,2.10
2019-03-16T06:35:05.241Z,5.10
2019-03-16T06:37:36.923Z,2.47
2019-03-16T06:40:08.654Z,2.40
2019-03-16T06:42:40.374Z,4.10
2019-03-16T06:45:12.131Z,1.30
2019-03-16T06:47:43.747Z,1.80
2019-03-16T06:50:15.443Z,1.27
2019-03-16T06:52:47.031Z,1.97
2019-03-16T06:55:18.614Z,1.73
2019-03-16T06:57:50.191Z,1.97
2019-03-16T07:00:21.781Z,1.83
2019-03-16T07:02:53.637Z,2.67
2019-03-16T07:05:37.540Z,1.93
2019-03-16T07:07:59.022Z,1.67
2019-03-16T07:10:30.670Z,1.70
2019-03-16T07:13:02.250Z,1.93
2019-03-16T07:15:33.873Z,2.63
2019-03-16T07:18:05.590Z,1.77
2019-03-16T07:20:37.185Z,1.80
2019-03-16T07:23:09.883Z,2.60
2019-03-16T07:25:41.590Z,3.07
2019-03-16T07:28:13.490Z,3.53
2019-03-16T07:30:45.170Z,2.80
2019-03-16T07:33:16.819Z,5.00
2019-03-16T07:35:48.417Z,3.10
2019-03-16T07:38:20.091Z,3.40
2019-03-16T07:40:51.759Z,1.80
2019-03-16T07:43:23.627Z,2.00
2019-03-16T07:45:55.498Z,1.63
2019-03-16T07:48:27.095Z,1.60
2019-03-16T07:50:58.690Z,1.87
2019-03-16T07:53:30.298Z,3.73
2019-03-16T07:56:03.679Z,2.03
2019-03-16T07:58:35.374Z,3.13
2019-03-16T08:01:06.957Z,2.97
2019-03-16T08:03:38.574Z,2.60
2019-03-16T08:06:10.158Z,3.10
2019-03-16T08:08:41.841Z,2.33
2019-03-16T08:11:13.429Z,7.40
2019-03-16T08:13:45.030Z,7.40
2019-03-16T08:16:16.627Z,6.77
2019-03-16T08:18:48.307Z,18.77
2019-03-16T08:21:19.959Z,5.53
2019-03-16T08:23:53.746Z,10.43
2019-03-16T08:26:24.958Z,2.87
2019-03-16T08:28:59.154Z,7.30
2019-03-16T08:31:29.911Z,6.47
2019-03-16T08:34:01.603Z,4.03
2019-03-16T08:36:33.261Z,3.87
2019-03-16T08:39:05.675Z,6.80
2019-03-16T08:41:37.266Z,6.83
2019-03-16T08:44:08.883Z,6.23
2019-03-16T08:46:41.006Z,3.30
2019-03-16T08:49:12.762Z,2.47
2019-03-16T08:51:44.367Z,2.90
2019-03-16T08:54:15.969Z,3.73
2019-03-16T08:56:47.645Z,3.13
2019-03-16T08:59:19.309Z,3.13
2019-03-16T09:01:51.976Z,6.60
2019-03-16T09:04:23.692Z,6.20
2019-03-16T09:06:56.248Z,3.13
2019-03-16T09:09:27.854Z,2.40
2019-03-16T09:12:00.520Z,2.30
2019-03-16T09:14:32.117Z,2.50
2019-03-16T09:17:04.021Z,3.17
2019-03-16T09:19:35.858Z,4.73
2019-03-16T09:22:07.573Z,6.23
2019-03-16T09:24:39.264Z,3.33
2019-03-16T09:27:10.947Z,3.40
2019-03-16T09:29:42.562Z,2.97
2019-03-16T09:32:14.153Z,3.60
2019-03-16T09:34:45.760Z,1.67
2019-03-16T09:37:17.341Z,2.87
2019-03-16T09:39:48.964Z,4.70
2019-03-16T09:42:20.810Z,4.63
2019-03-16T09:44:52.656Z,4.13
2019-03-16T09:47:24.589Z,2.73
2019-03-16T09:50:20.335Z,2.47
2019-03-16T09:52:52.809Z,2.57
2019-03-16T09:55:25.392Z,3.53
2019-03-16T09:57:57.084Z,5.47
2019-03-16T10:00:28.713Z,4.10
2019-03-16T10:03:00.310Z,1.60
2019-03-16T10:05:31.924Z,2.57
2019-03-16T10:08:03.586Z,2.60
2019-03-16T10:10:35.451Z,2.47
2019-03-16T10:13:07.612Z,2.60
2019-03-16T10:15:41.275Z,3.50
2019-03-16T10:18:13.234Z,2.70
2019-03-16T10:20:44.979Z,3.03
2019-03-16T10:23:17.817Z,2.30
2019-03-16T10:25:49.826Z,3.33
2019-03-16T10:28:22.113Z,2.80
2019-03-16T10:30:53.772Z,3.23
2019-03-16T10:33:25.466Z,2.73
2019-03-16T10:35:58.138Z,7.63
2019-03-16T10:38:29.734Z,2.47
2019-03-16T10:41:01.349Z,7.30
2019-03-16T10:43:34.469Z,5.17
2019-03-16T10:46:08.365Z,5.27
2019-03-16T10:48:39.740Z,2.93
2019-03-16T10:51:11.439Z,1.90
2019-03-16T10:53:43.094Z,1.53
2019-03-16T10:56:14.814Z,2.57
2019-03-16T10:58:56.130Z,1.90
2019-03-16T11:01:20.254Z,6.13
2019-03-16T11:03:52.652Z,1.70
2019-03-16T11:06:24.631Z,7.43
2019-03-16T11:08:56.677Z,31.87
2019-03-16T11:11:28.305Z,5.27
2019-03-16T11:14:00.089Z,2.40
2019-03-16T11:16:33.520Z,2.73
2019-03-16T11:19:05.584Z,3.97
2019-03-16T11:21:37.361Z,3.60
2019-03-16T11:24:09.169Z,3.40
2019-03-16T11:26:41.127Z,6.37
2019-03-16T11:29:13.031Z,4.73
2019-03-16T11:31:45.021Z,4.53
2019-03-16T11:34:16.850Z,3.53
2019-03-16T11:36:48.576Z,4.27
2019-03-16T11:39:20.482Z,4.00
2019-03-16T11:41:54.077Z,2.77
2019-03-16T11:44:28.105Z,4.30
2019-03-16T11:46:59.826Z,3.27
2019-03-16T11:49:31.711Z,4.90
2019-03-16T11:52:03.891Z,3.00
2019-03-16T11:54:35.773Z,2.80
2019-03-16T11:57:07.626Z,2.87
2019-03-16T11:59:39.367Z,2.73
2019-03-16T12:02:11.055Z,4.10
2019-03-16T12:04:42.961Z,3.83
2019-03-16T12:07:14.756Z,23.53
2019-03-16T12:09:46.517Z,4.80
2019-03-16T12:12:18.293Z,6.20
2019-03-16T12:14:50.156Z,5.20
2019-03-16T12:17:22.192Z,5.60
2019-03-16T12:19:54.001Z,5.37
2019-03-16T12:22:25.730Z,106.37
2019-03-16T12:24:58.304Z,25.07
2019-03-16T12:27:30.338Z,2.70
2019-03-16T12:30:06.039Z,5.10
2019-03-16T12:32:40.899Z,10.50
2019-03-16T12:35:14.806Z,5.80
2019-03-16T12:37:46.969Z,11.23
2019-03-16T12:40:18.979Z,5.40
2019-03-16T12:42:50.620Z,5.10
2019-03-16T12:45:22.661Z,7.07
2019-03-16T12:47:54.394Z,7.80
2019-03-16T12:50:26.294Z,23.97
2019-03-16T12:52:58.394Z,26.67
2019-03-16T12:55:30.487Z,13.63
2019-03-16T12:58:03.643Z,9.00
2019-03-16T13:00:35.668Z,7.33
2019-03-16T13:03:07.966Z,6.70
2019-03-16T13:05:40.302Z,7.70
2019-03-16T13:08:12.452Z,7.20
2019-03-16T13:10:44.765Z,2.33
2019-03-16T13:13:16.762Z,4.60
2019-03-16T13:15:49.363Z,9.23
2019-03-16T13:18:21.710Z,10.07
2019-03-16T13:20:53.519Z,6.50
2019-03-16T13:23:25.507Z,5.13
2019-03-16T13:25:57.417Z,3.77
2019-03-16T13:28:29.020Z,2.53
2019-03-16T13:31:00.647Z,4.27
2019-03-16T13:33:33.347Z,2.30
2019-03-16T13:36:04.959Z,2.47
2019-03-16T13:38:36.646Z,3.77
2019-03-16T13:41:08.414Z,2.40
2019-03-16T13:43:40.055Z,2.87
2019-03-16T13:46:11.671Z,15.07
2019-03-16T13:48:43.579Z,7.00
2019-03-16T13:51:15.196Z,2.40
2019-03-16T13:53:46.824Z,6.00
2019-03-16T13:56:18.492Z,5.07
2019-03-16T13:58:50.392Z,4.83
2019-03-16T14:01:22.108Z,4.20
2019-03-16T14:03:53.928Z,17.83
2019-03-16T14:06:25.897Z,10.60
2019-03-16T14:08:57.807Z,30.23
2019-03-16T14:11:29.439Z,2.70
2019-03-16T14:14:01.048Z,6.10
2019-03-16T14:16:32.720Z,4.50
2019-03-16T14:19:04.641Z,23.63
2019-03-16T14:21:38.030Z,35.33
2019-03-16T14:24:09.715Z,21.70
2019-03-16T14:26:42.619Z,30.77
2019-03-16T14:29:14.401Z,11.63
2019-03-16T14:31:48.016Z,5.50
2019-03-16T14:34:20.129Z,4.30
2019-03-16T14:36:53.338Z,5.77
2019-03-16T14:39:27.389Z,4.50
2019-03-16T14:41:59.636Z,3.30
2019-03-16T14:44:32.300Z,14.60
2019-03-16T14:47:04.172Z,5.80
2019-03-16T14:49:35.874Z,8.17
2019-03-16T14:52:07.790Z,2.40
2019-03-16T14:54:39.482Z,6.73
2019-03-16T14:57:11.164Z,3.10
2019-03-16T14:59:44.009Z,4.83
2019-03-16T15:02:15.616Z,4.77
2019-03-16T15:04:47.310Z,5.47
2019-03-16T15:07:18.915Z,10.73
2019-03-16T15:09:50.646Z,4.33
2019-03-16T15:12:22.466Z,6.53
2019-03-16T15:14:54.542Z,6.43
2019-03-16T15:17:28.352Z,8.97
2019-03-16T15:20:00.571Z,4.83
2019-03-16T15:22:32.371Z,6.97
2019-03-16T15:25:04.488Z,3.10
2019-03-16T15:27:36.284Z,9.13
2019-03-16T15:30:10.520Z,2.90
2019-03-16T15:32:44.796Z,2.73
2019-03-16T15:35:17.385Z,2.60
2019-03-16T15:37:49.327Z,2.23
2019-03-16T15:40:21.406Z,6.87
2019-03-16T15:42:54.615Z,11.00
2019-03-16T15:45:26.889Z,4.47
2019-03-16T15:47:58.805Z,5.30
2019-03-16T15:50:30.688Z,4.07
2019-03-16T15:53:02.499Z,4.37
2019-03-16T15:55:34.268Z,3.50
2019-03-16T15:58:08.435Z,1.90
2019-03-16T16:00:39.585Z,3.07
2019-03-16T16:03:11.548Z,2.73
2019-03-16T16:05:43.361Z,1.83
2019-03-16T16:08:15.134Z,1.93
2019-03-16T16:10:59.714Z,2.10
2019-03-16T16:13:22.052Z,7.17
2019-03-16T16:15:55.013Z,2.50
2019-03-16T16:18:26.777Z,5.23
2019-03-16T16:20:58.644Z,5.57
2019-03-16T16:23:30.440Z,6.53
2019-03-16T16:26:02.293Z,17.97
2019-03-16T16:28:34.414Z,10.57
2019-03-16T16:31:16.229Z,20.33
2019-03-16T16:33:40.686Z,12.10
2019-03-16T16:36:12.502Z,12.40
2019-03-16T16:38:44.427Z,12.67
2019-03-16T16:41:16.260Z,15.27
2019-03-16T16:43:48.140Z,18.63
2019-03-16T16:46:19.765Z,16.57
2019-03-16T16:48:51.543Z,14.07
2019-03-16T16:51:23.345Z,18.57
2019-03-16T16:53:55.298Z,8.27
2019-03-16T16:56:27.247Z,9.37
2019-03-16T16:58:59.078Z,53.70
2019-03-16T17:01:32.258Z,94.77
2019-03-16T17:04:04.578Z,29.53
2019-03-16T17:06:36.445Z,48.73
2019-03-16T17:09:08.805Z,27.77
2019-03-16T17:11:40.452Z,11.87
2019-03-16T17:14:12.230Z,5.90
2019-03-16T17:16:43.929Z,6.27
2019-03-16T17:19:15.663Z,5.30
2019-03-16T17:21:47.406Z,6.10
2019-03-16T17:24:19.460Z,8.40
2019-03-16T17:26:54.373Z,11.00
2019-03-16T17:29:26.799Z,9.63
2019-03-16T17:31:58.763Z,8.03
2019-03-16T17:34:30.496Z,9.70
2019-03-16T17:37:02.402Z,8.63
2019-03-16T17:39:34.151Z,10.83
2019-03-16T17:42:07.913Z,7.00
2019-03-16T17:44:39.785Z,10.50
2019-03-16T17:47:11.711Z,11.23
2019-03-16T17:49:44.876Z,10.37
2019-03-16T17:52:16.749Z,14.17
2019-03-16T17:54:48.411Z,9.97
2019-03-16T17:57:20.106Z,14.77
2019-03-16T17:59:52.316Z,16.50
2019-03-16T18:02:24.009Z,25.37
2019-03-16T18:04:59.578Z,26.53
2019-03-16T18:07:34.231Z,28.43
2019-03-16T18:10:08.580Z,37.63
2019-03-16T18:12:40.710Z,65.47
2019-03-16T18:15:12.912Z,69.33
2019-03-16T18:17:47.211Z,56.23
2019-03-16T18:20:19.225Z,55.43
2019-03-16T18:22:51.135Z,46.97
2019-03-16T18:25:23.491Z,39.73
2019-03-16T18:27:55.297Z,48.07
2019-03-16T18:30:27.161Z,62.40
2019-03-16T18:32:59.473Z,60.13
2019-03-16T18:35:31.304Z,67.20
2019-03-16T18:38:03.073Z,84.50
2019-03-16T18:40:34.884Z,92.77
2019-03-16T18:43:06.841Z,53.07
2019-03-16T18:45:39.438Z,42.70
2019-03-16T18:48:13.451Z,24.83
2019-03-16T18:50:46.276Z,41.80
2019-03-16T18:53:22.378Z,28.27
2019-03-16T18:55:55.676Z,34.13
2019-03-16T18:58:37.033Z,39.00
2019-03-16T19:01:03.225Z,36.77
2019-03-16T19:03:39.800Z,47.87
2019-03-16T19:06:12.563Z,21.73
2019-03-16T19:08:44.289Z,39.73
2019-03-16T19:11:16.591Z,23.90
2019-03-16T19:13:48.843Z,17.37
2019-03-16T19:16:20.936Z,27.83
2019-03-16T19:18:52.772Z,27.03
2019-03-16T19:21:24.698Z,27.83
2019-03-16T19:23:56.944Z,37.27
2019-03-16T19:26:30.078Z,53.17
2019-03-16T19:29:02.262Z,28.70
2019-03-16T19:31:34.086Z,24.87
2019-03-16T19:34:07.081Z,29.73
2019-03-16T19:36:39.478Z,23.80
2019-03-16T19:39:11.723Z,22.37
2019-03-16T19:41:46.313Z,30.93
2019-03-16T19:44:18.426Z,21.07
2019-03-16T19:46:52.234Z,15.23
2019-03-16T19:49:26.247Z,39.47
2019-03-16T19:52:01.559Z,26.83
2019-03-16T19:54:33.758Z,25.30
2019-03-16T19:57:15.480Z,25.63
2019-03-16T19:59:42.148Z,23.30
2019-03-16T20:02:14.648Z,21.43
2019-03-16T20:04:46.506Z,15.30
2019-03-16T20:07:19.592Z,15.90
2019-03-16T20:09:53.115Z,14.33
2019-03-16T20:12:24.863Z,16.57
2019-03-16T20:14:56.955Z,22.00
2019-03-16T20:17:28.859Z,22.40
2019-03-16T20:20:01.293Z,17.87
2019-03-16T20:22:33.422Z,19.30
2019-03-16T20:25:05.501Z,11.97
2019-03-16T20:27:38.699Z,14.10
2019-03-16T20:30:26.458Z,20.40
2019-03-16T20:33:04.370Z,27.93
2019-03-16T20:35:37.150Z,20.73
2019-03-16T20:38:08.870Z,13.77
2019-03-16T20:40:40.652Z,16.20
2019-03-16T20:43:12.364Z,23.50
2019-03-16T20:45:44.084Z,19.23
2019-03-16T20:48:15.902Z,17.20
2019-03-16T20:50:47.613Z,15.73
2019-03-16T20:53:19.311Z,15.77
2019-03-16T20:55:51.200Z,28.23
2019-03-16T20:58:23.148Z,23.70
2019-03-16T21:00:57.877Z,36.53
2019-03-16T21:03:29.185Z,34.70
2019-03-16T21:06:00.925Z,34.47
2019-03-16T21:08:32.751Z,17.87
2019-03-16T21:11:04.500Z,23.03
2019-03-16T21:13:36.603Z,18.17
2019-03-16T21:16:10.718Z,26.53
2019-03-16T21:18:42.799Z,19.77
2019-03-16T21:21:14.456Z,13.70
2019-03-16T21:23:46.134Z,18.50
2019-03-16T21:26:17.734Z,17.70
2019-03-16T21:28:49.421Z,18.50
2019-03-16T21:31:21.047Z,16.30
2019-03-16T21:33:52.706Z,15.03
2019-03-16T21:36:24.363Z,12.50
2019-03-16T21:38:56.916Z,13.33
2019-03-16T21:41:28.597Z,14.43
2019-03-16T21:44:00.260Z,17.17
2019-03-16T21:46:31.849Z,18.73
2019-03-16T21:49:03.446Z,18.73
2019-03-16T21:51:35.125Z,17.77
2019-03-16T21:54:06.799Z,32.73
2019-03-16T21:56:38.407Z,33.10
2019-03-16T21:59:10.057Z,27.60
2019-03-16T22:01:41.676Z,57.90
2019-03-16T22:04:13.266Z,22.30
2019-03-16T22:06:44.866Z,18.27
2019-03-16T22:09:16.932Z,23.57
2019-03-16T22:11:48.567Z,17.43
2019-03-16T22:14:20.162Z,20.30
2019-03-16T22:16:51.783Z,19.60
2019-03-16T22:19:23.377Z,20.07
2019-03-16T22:21:55.085Z,19.77
2019-03-16T22:24:28.085Z,18.77
2019-03-16T22:27:00.015Z,19.80
2019-03-16T22:29:31.595Z,19.27
2019-03-16T22:32:03.307Z,18.07
2019-03-16T22:34:34.954Z,20.40
2019-03-16T22:37:06.590Z,17.90
2019-03-16T22:39:38.159Z,16.03
2019-03-16T22:42:09.785Z,17.30
2019-03-16T22:44:41.439Z,16.53
2019-03-16T22:47:13.118Z,14.47
2019-03-16T22:49:44.767Z,15.40
2019-03-16T22:52:16.427Z,14.93
2019-03-16T22:54:48.013Z,14.17
2019-03-16T22:57:19.616Z,13.50
2019-03-16T22:59:51.326Z,13.73
2019-03-16T23:02:23.188Z,13.30
2019-03-16T23:04:54.999Z,16.87
2019-03-16T23:07:26.965Z,12.03
2019-03-16T23:09:58.613Z,13.57
2019-03-16T23:12:30.223Z,13.30
2019-03-16T23:15:01.913Z,14.50
2019-03-16T23:17:33.784Z,13.83
2019-03-16T23:20:05.600Z,18.87
2019-03-16T23:22:37.276Z,18.23
2019-03-16T23:25:08.939Z,13.13
2019-03-16T23:27:40.607Z,13.50
2019-03-16T23:30:12.280Z,17.33
2019-03-16T23:32:43.964Z,22.57
2019-03-16T23:35:15.629Z,13.47
2019-03-16T23:37:47.288Z,19.70
2019-03-16T23:40:18.939Z,13.00
2019-03-16T23:42:50.720Z,21.40
2019-03-16T23:45:22.307Z,21.73
2019-03-16T23:47:54.084Z,20.33
2019-03-16T23:50:25.786Z,19.53
2019-03-16T23:52:57.396Z,17.10
2019-03-16T23:55:28.996Z,12.50
2019-03-16T23:58:00.644Z,11.23
